CDT,Max TemperatureF,Mean TemperatureF,Min TemperatureF,Max Dew PointF,MeanDew PointF,Min DewpointF,Max Humidity, Mean Humidity, Min Humidity, Max Sea Level PressureIn, Mean Sea Level PressureIn, Min Sea Level PressureIn, Max VisibilityMiles, Mean VisibilityMiles, Min VisibilityMiles, Max Wind SpeedMPH, Mean Wind SpeedMPH, Max Gust SpeedMPH,PrecipitationIn, CloudCover, Events, WindDirDegrees
2013-9-1,91,79,67,72,67,57,100,69,38,29.88,29.81,29.78,10,6,0,16,7,21,0.00,2,Fog,306
2013-9-2,84,71,58,61,57,52,90,64,37,30.00,29.95,29.88,10,10,10,14,7,22,0.00,1,,341
2013-9-3,82,67,51,57,51,43,96,61,26,30.10,30.05,30.00,10,10,10,10,3,13,0.00,0,,39
2013-9-4,88,72,56,57,53,45,86,54,22,30.16,30.11,30.06,10,10,10,8,3,12,0.00,0,,143
2013-9-5,90,76,61,60,57,55,84,59,34,30.19,30.15,30.12,10,10,10,12,4,16,0.00,0,,140
2013-9-6,89,75,61,63,59,56,84,59,34,30.16,30.09,30.00,10,10,10,14,6,20,0.00,0,,159
2013-9-7,96,78,60,64,61,57,84,59,33,30.02,29.95,29.88,10,10,8,16,7,22,T,0,,204
2013-9-8,90,81,71,71,69,64,90,71,52,29.96,29.89,29.84,10,9,5,16,9,23,0.11,2,Rain-Thunderstorm,164
2013-9-9,100,86,72,70,66,61,87,58,29,29.93,29.88,29.85,10,9,5,18,9,26,0.00,0,,208
2013-9-10,98,84,70,66,63,58,73,50,27,30.05,30.01,29.94,10,10,8,21,9,26,0.00,0,,207
2013-9-11,97,83,69,66,62,57,74,51,27,30.10,30.05,29.99,10,10,10,17,8,26,0.18,1,Thunderstorm,253
2013-9-12,85,71,57,69,60,42,97,62,26,30.10,30.06,30.02,10,8,2,21,9,26,0.52,4,Rain-Thunderstorm,327
2013-9-13,75,64,52,51,45,36,89,57,25,30.19,30.13,30.10,10,10,10,15,7,20,0.00,0,,33
2013-9-14,74,61,47,48,44,41,80,57,33,30.18,30.10,30.01,10,10,10,12,6,15,0.00,0,,139
2013-9-15,80,69,58,64,56,43,87,65,43,30.17,30.05,29.98,10,10,7,17,10,25,0.04,6,Rain,309
2013-9-16,71,63,54,55,53,50,93,73,53,30.32,30.25,30.17,10,10,9,17,8,22,0.00,5,,62
2013-9-17,67,60,53,61,57,50,93,83,72,30.27,30.17,30.06,10,9,7,12,7,14,0.01,5,Rain,132
2013-9-18,88,76,63,68,65,58,93,72,50,30.06,29.97,29.89,10,9,5,18,10,24,T,2,,176
2013-9-19,94,81,68,69,66,64,93,69,44,29.92,29.88,29.79,10,9,2,24,10,31,0.42,2,Rain-Thunderstorm,212
2013-9-20,72,63,54,66,61,48,100,72,44,29.94,29.90,29.86,10,9,2,17,8,23,0.07,5,Rain,276
2013-9-21,71,60,49,51,47,44,93,66,38,29.99,29.95,29.92,10,10,10,15,6,21,0.00,0,,323
2013-9-22,75,62,48,51,47,44,86,62,38,30.03,29.97,29.94,10,10,10,10,5,15,0.00,0,,99
2013-9-23,75,63,50,50,48,46,86,64,41,30.03,29.97,29.93,10,10,10,17,8,22,0.00,0,,125
2013-9-24,78,65,52,58,54,47,89,69,48,29.94,29.87,29.81,10,10,10,17,9,23,0.00,2,,112
2013-9-25,81,69,56,60,57,53,93,71,49,29.90,29.86,29.81,10,10,8,10,6,,0.00,1,,73
2013-9-26,85,72,58,61,58,55,93,67,40,30.00,29.95,29.88,10,9,6,16,7,21,0.00,0,,131
2013-9-27,83,71,59,62,56,50,84,62,40,30.08,30.02,29.98,10,10,6,17,9,23,0.00,0,,149
2013-9-28,79,67,55,68,61,51,93,75,56,30.04,29.96,29.91,10,8,2,22,10,29,0.45,6,Rain,206
2013-9-29,73,60,47,54,48,43,100,68,35,30.10,30.05,29.99,10,5,0,10,3,15,0.00,1,Fog,129
2013-9-30,77,63,48,58,51,41,80,64,48,29.98,29.92,29.86,10,10,10,15,8,31,0.00,0,,165